Time;durP1;ratioP1;P1;durP2;ratioP2;P2;SDS_P1;SDS_P2;PMS_P1;PMS_P2;Temp;Humidity;BMP_temperature;BMP_pressure;BME280_temperature;BME280_humidity;BME280_pressure;Samples;Min_cycle;Max_cycle;Signal;HPM_P1;HPM_P2
2022/04/17 00:01:02;;;;;;;;;;;;;;;14.20;28.38;100005.28;4483702;32;34967;-83
2022/04/17 00:03:29;;;;;;;;;;;;;;;13.35;28.89;100012.84;4482311;32;33912;-82
2022/04/17 00:05:57;;;;;;;;;;;;;;;13.10;29.35;100011.56;4482165;32;34676;-82
2022/04/17 00:08:24;;;;;;;;;;;;;;;13.36;29.39;100006.78;4483326;32;34017;-79
2022/04/17 00:10:52;;;;;;;;;;;;;;;11.99;30.36;100011.28;4483194;32;35399;-82
2022/04/17 00:13:22;;;;;;;;;;;;;;;12.13;29.84;100006.37;4483023;32;34161;-82
2022/04/17 00:15:51;;;;;;;;;;;;;;;11.13;31.49;100003.25;4483313;32;32803;-82
2022/04/17 00:18:18;;;;;;;;;;;;;;;11.31;30.14;100001.09;4483168;32;35120;-80
2022/04/17 00:20:45;;;;;;;;;;;;;;;11.78;30.59;100005.59;4483443;32;35246;-82
2022/04/17 00:23:13;;;;;;;;;;;;;;;12.15;29.25;100000.31;4483122;32;35259;-82
2022/04/17 00:25:40;;;;;;;;;;;;;;;12.32;29.58;99997.19;4483104;32;33580;-83
2022/04/17 00:28:08;;;;;;;;;;;;;;;11.37;30.39;100005.56;4483204;32;34120;-81
2022/04/17 00:30:35;;;;;;;;;;;;;;;11.00;30.46;99998.63;4467982;32;34356;-83
2022/04/17 00:33:03;;;;;;;;;;;;;;;11.65;28.83;99997.53;4479064;32;34344;-83
2022/04/17 00:35:30;;;;;;;;;;;;;;;11.75;27.90;99992.56;4483494;32;33455;-82
2022/04/17 00:37:57;;;;;;;;;;;;;;;11.65;29.20;100002.72;4483544;32;34132;-82
2022/04/17 00:40:25;;;;;;;;;;;;;;;11.43;27.91;99997.91;4483213;32;33598;-82
2022/04/17 00:42:53;;;;;;;;;;;;;;;12.11;27.71;100003.72;4483010;32;33972;-82
2022/04/17 00:45:20;;;;;;;;;;;;;;;12.25;27.65;100003.13;4483247;32;33282;-82
2022/04/17 00:47:47;;;;;;;;;;;;;;;11.89;28.20;100002.44;4482349;32;34421;-83
2022/04/17 00:50:15;;;;;;;;;;;;;;;10.83;29.01;99996.47;4482901;32;34475;-83
2022/04/17 00:52:42;;;;;;;;;;;;;;;11.38;28.29;99991.75;4465967;32;34320;-83
2022/04/17 00:55:10;;;;;;;;;;;;;;;11.22;28.81;99987.91;4468585;32;34282;-82
2022/04/17 00:57:37;;;;;;;;;;;;;;;12.17;27.40;99990.84;4468601;32;34069;-83
2022/04/17 01:00:05;;;;;;;;;;;;;;;12.33;26.85;99981.62;4483003;32;34174;-82
2022/04/17 01:02:32;;;;;;;;;;;;;;;11.62;28.17;99987.06;4482268;32;34383;-82
2022/04/17 01:05:00;;;;;;;;;;;;;;;10.40;29.39;99981.53;4482105;32;34275;-81
2022/04/17 01:07:27;;;;;;;;;;;;;;;10.70;29.47;99982.34;4482142;32;33827;-82
2022/04/17 01:09:54;;;;;;;;;;;;;;;11.24;28.34;99983.63;4481652;32;33858;-82
2022/04/17 01:12:21;;;;;;;;;;;;;;;11.76;27.79;99981.31;4468700;32;34366;-82
2022/04/17 01:14:49;;;;;;;;;;;;;;;12.09;27.33;99984.63;4482733;32;33415;-82
2022/04/17 01:17:16;;;;;;;;;;;;;;;11.16;27.48;99978.25;4483507;32;34016;-82
2022/04/17 01:19:43;;;;;;;;;;;;;;;10.16;29.38;99980.03;4484670;32;34343;-82
2022/04/17 01:22:11;;;;;;;;;;;;;;;10.81;28.57;99979.16;4483736;32;34304;-81
2022/04/17 01:27:25;;;;;;;;;;;;;;;11.50;27.48;99986.81;4472226;32;34282;-83
2022/04/17 01:29:53;;;;;;;;;;;;;;;9.73;30.08;99986.56;4484295;32;35090;-82
2022/04/17 01:32:20;;;;;;;;;;;;;;;10.08;29.22;99988.44;4483907;32;34378;-83
2022/04/17 01:34:48;;;;;;;;;;;;;;;10.59;29.21;99983.78;4484044;32;33416;-82
2022/04/17 01:37:16;;;;;;;;;;;;;;;10.17;29.30;99986.94;4483975;32;34293;-82
2022/04/17 01:39:43;;;;;;;;;;;;;;;11.05;27.72;99990.09;4483950;32;34715;-82
2022/04/17 01:42:12;;;;;;;;;;;;;;;10.69;28.37;99988.38;4483293;32;33707;-82
2022/04/17 01:44:40;;;;;;;;;;;;;;;11.54;27.39;99990.34;4483742;32;33035;-83
2022/04/17 01:47:08;;;;;;;;;;;;;;;11.99;27.36;99977.50;4484585;32;33831;-83
2022/04/17 01:49:36;;;;;;;;;;;;;;;12.63;25.37;99970.87;4469672;32;34715;-82
2022/04/17 01:52:03;;;;;;;;;;;;;;;11.73;27.59;99986.44;4482863;32;33908;-81
2022/04/17 01:54:32;;;;;;;;;;;;;;;12.14;26.87;99982.12;4468572;32;33132;-83
2022/04/17 01:56:59;;;;;;;;;;;;;;;11.37;28.01;99983.06;4468930;32;34689;-84
2022/04/17 01:59:27;;;;;;;;;;;;;;;10.57;27.87;99977.69;4483712;32;35080;-81
2022/04/17 02:01:54;;;;;;;;;;;;;;;11.64;26.89;99968.94;4483379;32;34281;-83
2022/04/17 02:04:26;;;;;;;;;;;;;;;10.53;28.61;99973.28;4483625;32;33903;-82
2022/04/17 02:06:53;;;;;;;;;;;;;;;11.37;26.63;99972.69;4484171;32;35353;-83
2022/04/17 02:09:21;;;;;;;;;;;;;;;12.03;26.04;99966.31;4467933;32;34161;-81
2022/04/17 02:11:48;;;;;;;;;;;;;;;12.47;25.89;99966.28;4469352;32;34234;-83
2022/04/17 02:14:15;;;;;;;;;;;;;;;12.66;26.51;99965.75;4483138;32;34589;-83
2022/04/17 02:16:42;;;;;;;;;;;;;;;12.25;27.06;99966.72;4473694;32;34243;-83
2022/04/17 02:19:10;;;;;;;;;;;;;;;11.68;27.27;99961.25;4483888;32;34542;-82
2022/04/17 02:21:37;;;;;;;;;;;;;;;12.01;26.82;99960.22;4483420;32;34159;-83
2022/04/17 02:24:04;;;;;;;;;;;;;;;11.69;27.44;99957.78;4482564;32;34260;-83
2022/04/17 02:26:32;;;;;;;;;;;;;;;11.67;26.80;99959.50;4483656;32;33613;-82
2022/04/17 02:29:00;;;;;;;;;;;;;;;11.84;26.57;99961.59;4482382;32;34078;-83
2022/04/17 02:31:27;;;;;;;;;;;;;;;10.90;27.69;99951.69;4469394;32;34317;-82
2022/04/17 02:33:55;;;;;;;;;;;;;;;10.74;27.94;99948.69;4482665;32;33074;-82
2022/04/17 02:36:22;;;;;;;;;;;;;;;12.00;26.79;99953.25;4483449;32;33646;-83
2022/04/17 02:38:49;;;;;;;;;;;;;;;11.52;26.73;99943.59;4483876;32;34160;-82
2022/04/17 02:41:17;;;;;;;;;;;;;;;11.42;26.92;99947.69;4469882;32;35067;-82
2022/04/17 02:43:44;;;;;;;;;;;;;;;11.41;27.30;99937.28;4483779;32;32977;-82
2022/04/17 02:46:11;;;;;;;;;;;;;;;13.12;26.73;99932.63;4483468;32;34104;-83
2022/04/17 02:48:39;;;;;;;;;;;;;;;11.00;27.27;99928.56;4483791;32;35356;-83
2022/04/17 02:51:07;;;;;;;;;;;;;;;11.80;26.43;99925.97;4482970;32;34043;-83
2022/04/17 02:53:35;;;;;;;;;;;;;;;11.42;26.66;99926.06;4483590;32;33354;-82
2022/04/17 02:56:02;;;;;;;;;;;;;;;11.35;26.77;99935.41;4482833;32;34113;-82
2022/04/17 02:58:29;;;;;;;;;;;;;;;10.86;26.94;99923.94;4483822;32;34015;-82
2022/04/17 03:06:28;;;;;;;;;;;;;;;11.39;26.73;99931.19;4467928;32;34982;-82
2022/04/17 03:08:55;;;;;;;;;;;;;;;11.18;27.12;99927.28;4468084;32;34527;-83
2022/04/17 03:11:23;;;;;;;;;;;;;;;11.32;27.03;99930.16;4482971;32;34295;-83
2022/04/17 03:13:52;;;;;;;;;;;;;;;11.64;26.71;99937.78;4482875;32;33414;-83
2022/04/17 03:16:19;;;;;;;;;;;;;;;11.37;25.75;99933.75;4480862;32;34357;-82
2022/04/17 03:18:47;;;;;;;;;;;;;;;10.95;26.96;99938.84;4483129;32;35347;-81
2022/04/17 03:21:14;;;;;;;;;;;;;;;10.55;27.56;99937.88;4483294;32;34080;-83
2022/04/17 03:23:41;;;;;;;;;;;;;;;11.12;26.71;99936.62;4483346;32;34236;-82
2022/04/17 03:26:08;;;;;;;;;;;;;;;10.20;28.07;99943.00;4483414;32;33801;-82
2022/04/17 03:28:35;;;;;;;;;;;;;;;10.63;26.98;99940.66;4483445;32;35290;-82
2022/04/17 03:31:04;;;;;;;;;;;;;;;10.85;27.51;99942.06;4482895;32;35100;-83
2022/04/17 03:33:31;;;;;;;;;;;;;;;11.29;27.07;99949.97;4483282;32;33411;-82
2022/04/17 03:35:58;;;;;;;;;;;;;;;9.92;28.82;99954.28;4482840;32;34060;-82
2022/04/17 03:38:26;;;;;;;;;;;;;;;10.47;27.72;99949.75;4483071;32;35176;-83
2022/04/17 03:40:53;;;;;;;;;;;;;;;11.48;26.56;99952.16;4483002;32;34667;-83
2022/04/17 03:43:23;;;;;;;;;;;;;;;10.88;27.82;99947.31;4483028;32;32977;-83
2022/04/17 03:45:51;;;;;;;;;;;;;;;12.09;26.25;99943.03;4482238;32;35328;-82
2022/04/17 03:48:18;;;;;;;;;;;;;;;10.70;28.12;99947.75;4482551;32;35857;-82
2022/04/17 03:50:47;;;;;;;;;;;;;;;11.08;27.02;99953.84;4482975;32;34932;-82
2022/04/17 03:53:15;;;;;;;;;;;;;;;12.77;25.38;99959.84;4483236;32;33399;-82
2022/04/17 03:55:42;;;;;;;;;;;;;;;12.49;25.56;99954.16;4482863;32;33952;-82
2022/04/17 03:58:09;;;;;;;;;;;;;;;12.25;25.21;99964.13;4483019;32;34641;-83
2022/04/17 04:00:37;;;;;;;;;;;;;;;11.80;26.14;99964.94;4483363;32;34196;-83
2022/04/17 04:03:05;;;;;;;;;;;;;;;11.17;26.10;99969.66;4482299;32;32711;-82
2022/04/17 04:05:32;;;;;;;;;;;;;;;12.34;25.59;99965.16;4482955;32;34232;-82
2022/04/17 04:07:59;;;;;;;;;;;;;;;12.77;25.81;99965.94;4481437;32;34426;-82
2022/04/17 04:10:26;;;;;;;;;;;;;;;13.21;24.77;99963.13;4482939;32;33872;-82
2022/04/17 04:12:54;;;;;;;;;;;;;;;12.43;24.42;99963.59;4482736;32;33386;-82
2022/04/17 04:15:21;;;;;;;;;;;;;;;12.69;25.23;99966.62;4482739;32;34757;-81
2022/04/17 04:17:49;;;;;;;;;;;;;;;12.28;25.62;99969.38;4482633;32;34311;-82
2022/04/17 04:20:16;;;;;;;;;;;;;;;12.17;25.39;99972.66;4482916;32;33843;-82
2022/04/17 04:22:44;;;;;;;;;;;;;;;12.23;25.39;99969.28;4482743;32;33577;-81
2022/04/17 04:25:11;;;;;;;;;;;;;;;12.20;25.34;99971.84;4482551;32;34060;-83
2022/04/17 04:30:24;;;;;;;;;;;;;;;12.23;25.16;99974.47;4482396;32;34120;-83
2022/04/17 04:32:52;;;;;;;;;;;;;;;13.15;24.63;99971.75;4482257;32;34213;-82
2022/04/17 04:35:20;;;;;;;;;;;;;;;13.30;24.42;99968.53;4468679;32;34747;-83
2022/04/17 04:37:48;;;;;;;;;;;;;;;12.92;24.28;99973.13;4469617;32;34620;-83
2022/04/17 04:40:15;;;;;;;;;;;;;;;13.67;24.11;99968.13;4482494;32;33796;-83
2022/04/17 04:42:42;;;;;;;;;;;;;;;13.77;23.35;99970.00;4482503;32;34262;-82
2022/04/17 04:47:56;;;;;;;;;;;;;;;14.69;22.98;99969.28;4467134;32;33877;-83
2022/04/17 04:50:23;;;;;;;;;;;;;;;13.89;23.64;99972.78;4456253;32;33995;-85
2022/04/17 04:52:50;;;;;;;;;;;;;;;14.12;22.72;99975.66;4481307;32;32702;-83
2022/04/17 04:55:17;;;;;;;;;;;;;;;14.48;22.76;99977.78;4482473;32;33039;-82
2022/04/17 04:57:45;;;;;;;;;;;;;;;14.87;22.49;99970.34;4482108;32;35276;-83
2022/04/17 05:00:13;;;;;;;;;;;;;;;15.04;21.47;99969.59;4482756;32;34162;-82
2022/04/17 05:02:41;;;;;;;;;;;;;;;14.22;22.62;99974.91;4482391;32;32950;-81
2022/04/17 05:05:08;;;;;;;;;;;;;;;15.11;21.86;99970.50;4480696;32;35304;-80
2022/04/17 05:07:36;;;;;;;;;;;;;;;13.56;23.62;99976.72;4482444;32;35144;-81
2022/04/17 05:10:04;;;;;;;;;;;;;;;14.69;22.52;99968.44;4481751;32;34718;-81
2022/04/17 05:12:31;;;;;;;;;;;;;;;14.57;22.61;99967.44;4477368;32;33245;-81
2022/04/17 05:14:59;;;;;;;;;;;;;;;14.45;22.11;99969.06;4482324;32;34123;-80
2022/04/17 05:17:26;;;;;;;;;;;;;;;12.83;23.93;99976.41;4482078;32;33700;-81
2022/04/17 05:19:53;;;;;;;;;;;;;;;12.54;24.88;99977.63;4481942;32;34496;-82
2022/04/17 05:22:22;;;;;;;;;;;;;;;13.80;23.02;99976.16;4482462;32;33603;-82
2022/04/17 05:24:49;;;;;;;;;;;;;;;14.53;22.69;99970.03;4482260;32;34598;-82
2022/04/17 05:27:17;;;;;;;;;;;;;;;14.92;22.00;99964.28;4482275;32;35248;-81
2022/04/17 05:29:44;;;;;;;;;;;;;;;15.29;22.41;99967.16;4482258;32;34213;-82
2022/04/17 05:32:11;;;;;;;;;;;;;;;15.27;21.74;99971.50;4482052;32;33404;-81
2022/04/17 05:34:40;;;;;;;;;;;;;;;13.27;23.70;99972.81;4482023;32;34289;-82
2022/04/17 05:37:08;;;;;;;;;;;;;;;14.08;23.31;99971.25;4481836;32;35255;-83
2022/04/17 05:39:35;;;;;;;;;;;;;;;14.58;22.47;99971.84;4481863;32;34257;-82
2022/04/17 05:42:03;;;;;;;;;;;;;;;15.80;21.36;99964.00;4481533;32;33431;-82
2022/04/17 05:44:30;;;;;;;;;;;;;;;13.95;22.31;99970.25;4481242;32;35205;-81
2022/04/17 05:46:59;;;;;;;;;;;;;;;13.30;23.79;99972.88;4481778;32;34175;-82
2022/04/17 05:49:26;;;;;;;;;;;;;;;12.46;25.42;99967.09;4481290;32;34856;-82
2022/04/17 05:51:55;;;;;;;;;;;;;;;12.25;24.48;99974.53;4467036;32;34221;-81
2022/04/17 05:54:22;;;;;;;;;;;;;;;12.07;24.76;99978.50;4471277;32;34219;-83
2022/04/17 05:56:50;;;;;;;;;;;;;;;12.34;25.28;99978.16;4467397;32;34339;-82
2022/04/17 05:59:17;;;;;;;;;;;;;;;11.58;25.64;99976.59;4481186;32;34125;-82
2022/04/17 06:01:44;;;;;;;;;;;;;;;11.75;26.53;99971.78;4481863;32;33176;-82
2022/04/17 06:04:11;;;;;;;;;;;;;;;11.32;27.25;99966.50;4483003;32;34229;-82
2022/04/17 06:06:38;;;;;;;;;;;;;;;11.16;27.24;99970.47;4483867;32;34454;-83
2022/04/17 06:09:06;;;;;;;;;;;;;;;12.27;25.28;99988.41;4483835;32;34521;-82
2022/04/17 06:11:34;;;;;;;;;;;;;;;12.01;25.95;99980.09;4484369;32;34460;-83
2022/04/17 06:14:01;;;;;;;;;;;;;;;11.86;26.61;99967.72;4483348;32;34759;-81
2022/04/17 06:16:28;;;;;;;;;;;;;;;12.13;26.06;99981.25;4469206;32;34107;-82
2022/04/17 06:18:56;;;;;;;;;;;;;;;12.68;25.98;99970.09;4483617;32;34840;-81
2022/04/17 06:21:23;;;;;;;;;;;;;;;11.97;26.28;99974.00;4483806;32;34138;-81
2022/04/17 06:23:50;;;;;;;;;;;;;;;11.47;26.94;99975.47;4484308;32;34236;-82
2022/04/17 06:26:18;;;;;;;;;;;;;;;12.25;26.34;99979.72;4483445;32;34507;-81
2022/04/17 06:28:45;;;;;;;;;;;;;;;11.83;26.55;99980.59;4483174;32;34242;-82
2022/04/17 06:31:12;;;;;;;;;;;;;;;11.63;26.14;99983.66;4484038;32;33393;-82
2022/04/17 06:33:39;;;;;;;;;;;;;;;12.35;26.43;99986.84;4483645;32;34109;-82
2022/04/17 06:36:06;;;;;;;;;;;;;;;12.96;25.92;99977.50;4482969;32;34282;-81
2022/04/17 06:38:34;;;;;;;;;;;;;;;13.13;25.47;99980.38;4483727;32;34321;-81
2022/04/17 06:41:01;;;;;;;;;;;;;;;12.33;25.99;99979.00;4483505;32;34207;-82
2022/04/17 06:43:28;;;;;;;;;;;;;;;12.61;25.11;99975.22;4483678;32;34097;-81
2022/04/17 06:45:55;;;;;;;;;;;;;;;13.62;25.16;99981.13;4483642;32;35233;-81
2022/04/17 06:48:23;;;;;;;;;;;;;;;12.35;26.43;99986.84;4483154;32;33914;-80
2022/04/17 06:50:51;;;;;;;;;;;;;;;12.83;26.81;99991.16;4483269;32;33354;-81
2022/04/17 06:53:18;;;;;;;;;;;;;;;13.50;26.47;99992.25;4483587;32;34253;-82
2022/04/17 06:55:47;;;;;;;;;;;;;;;12.80;25.79;99985.91;4483336;32;34088;-82
2022/04/17 06:58:15;;;;;;;;;;;;;;;12.18;26.81;100005.59;4483135;32;35568;-80
2022/04/17 07:00:42;;;;;;;;;;;;;;;12.62;25.80;99994.28;4483150;32;32745;-81
2022/04/17 07:03:10;;;;;;;;;;;;;;;12.51;27.02;100003.63;4483664;32;34986;-82
2022/04/17 07:05:37;;;;;;;;;;;;;;;12.26;26.37;99994.47;4484141;32;34536;-82
2022/04/17 07:08:05;;;;;;;;;;;;;;;13.44;24.76;99997.34;4483374;32;33909;-80
2022/04/17 07:10:37;;;;;;;;;;;;;;;14.35;23.16;99981.09;4481057;32;33410;-81
2022/04/17 07:13:05;;;;;;;;;;;;;;;13.62;23.93;99983.72;4477230;32;33970;-80
2022/04/17 07:15:32;;;;;;;;;;;;;;;13.68;24.55;99986.41;4477106;32;34152;-82
2022/04/17 07:18:00;;;;;;;;;;;;;;;13.24;25.53;99985.78;4475201;32;34929;-82
2022/04/17 07:20:27;;;;;;;;;;;;;;;14.29;24.25;99991.50;4480936;32;34294;-82
2022/04/17 07:22:54;;;;;;;;;;;;;;;14.16;24.41;99989.59;4472185;32;34155;-80
2022/04/17 07:25:21;;;;;;;;;;;;;;;14.83;23.36;99983.34;4481892;32;35183;-82
2022/04/17 07:27:49;;;;;;;;;;;;;;;14.75;23.21;99987.63;4480693;32;34017;-81
2022/04/17 07:30:20;;;;;;;;;;;;;;;14.55;22.73;99984.84;4481235;32;33253;-83
2022/04/17 07:32:49;;;;;;;;;;;;;;;13.99;23.11;99992.00;4476135;32;34379;-81
2022/04/17 07:35:17;;;;;;;;;;;;;;;14.69;23.66;99989.31;4468924;32;35307;-81
2022/04/17 07:37:48;;;;;;;;;;;;;;;14.54;23.21;99985.69;4481606;32;35050;-83
2022/04/17 07:40:21;;;;;;;;;;;;;;;14.84;22.37;99981.62;4468290;32;32966;-82
2022/04/17 07:42:49;;;;;;;;;;;;;;;15.37;22.25;99983.75;4468625;32;34633;-82
2022/04/17 07:45:17;;;;;;;;;;;;;;;14.49;22.74;99984.78;4460688;32;34284;-82
2022/04/17 07:47:44;;;;;;;;;;;;;;;14.37;23.35;99974.19;4476528;32;35255;-81
2022/04/17 07:50:13;;;;;;;;;;;;;;;13.95;23.77;99974.59;4475294;32;34193;-81
2022/04/17 07:52:41;;;;;;;;;;;;;;;14.07;23.15;99974.72;4481806;32;34895;-82
2022/04/17 07:55:10;;;;;;;;;;;;;;;13.63;23.94;99973.31;4474153;32;34346;-81
2022/04/17 08:00:23;;;;;;;;;;;;;;;13.67;24.22;99970.75;4482148;32;34740;-81
2022/04/17 08:03:24;;;;;;;;;;;;;;;14.37;24.14;99963.75;4477558;32;33432;-81
2022/04/17 08:05:51;;;;;;;;;;;;;;;14.66;23.96;99965.78;4475040;32;34129;-83
2022/04/17 08:08:19;;;;;;;;;;;;;;;15.76;22.18;99963.97;4482340;32;34237;-82
2022/04/17 08:10:46;;;;;;;;;;;;;;;15.38;22.94;99968.94;4461483;32;33529;-81
2022/04/17 08:13:13;;;;;;;;;;;;;;;15.38;22.13;99968.94;4475047;32;34203;-82
2022/04/17 08:15:41;;;;;;;;;;;;;;;15.45;22.89;99961.16;4477628;32;34497;-82
2022/04/17 08:18:08;;;;;;;;;;;;;;;15.30;22.26;99959.34;4468332;32;34031;-81
2022/04/17 08:20:35;;;;;;;;;;;;;;;14.76;23.11;99959.78;4480636;32;33323;-81
2022/04/17 08:23:03;;;;;;;;;;;;;;;14.29;23.09;99954.97;4472740;32;34352;-81
2022/04/17 08:25:30;;;;;;;;;;;;;;;15.05;23.44;99955.69;4475364;32;34087;-81
2022/04/17 08:27:57;;;;;;;;;;;;;;;13.45;25.02;99952.25;4476509;32;34249;-81
2022/04/17 08:30:26;;;;;;;;;;;;;;;15.47;23.70;99964.66;4477632;32;32346;-82
2022/04/17 08:32:53;;;;;;;;;;;;;;;14.00;23.70;99947.69;4475457;32;34382;-83
2022/04/17 08:35:21;;;;;;;;;;;;;;;14.28;23.15;99959.31;4466564;32;35192;-82
2022/04/17 08:37:49;;;;;;;;;;;;;;;13.63;23.90;99949.84;4472170;32;35336;-81
2022/04/17 08:40:16;;;;;;;;;;;;;;;14.58;23.91;99955.28;4477442;32;33669;-80
2022/04/17 08:42:44;;;;;;;;;;;;;;;15.82;21.74;99935.22;4477759;32;35523;-80
2022/04/17 08:45:12;;;;;;;;;;;;;;;14.69;23.04;99940.59;4476406;32;33902;-81
2022/04/17 08:47:40;;;;;;;;;;;;;;;15.73;22.45;99940.44;4464160;32;34838;-80
2022/04/17 08:50:08;;;;;;;;;;;;;;;15.15;23.49;99940.06;4478553;32;31945;-82
2022/04/17 08:52:37;;;;;;;;;;;;;;;14.83;23.35;99935.50;4470951;32;34221;-81
2022/04/17 08:55:04;;;;;;;;;;;;;;;14.01;24.27;99945.97;4469616;32;35344;-82
2022/04/17 08:57:31;;;;;;;;;;;;;;;15.42;22.06;99923.66;4467314;32;34191;-82
2022/04/17 08:59:59;;;;;;;;;;;;;;;15.02;23.36;99934.75;4481224;32;33410;-81
2022/04/17 09:02:26;;;;;;;;;;;;;;;14.82;22.31;99918.09;4476674;32;34330;-83
2022/04/17 09:04:53;;;;;;;;;;;;;;;15.08;22.64;99919.16;4474968;32;35290;-81
2022/04/17 09:07:20;;;;;;;;;;;;;;;14.82;23.24;99915.47;4467064;32;34754;-84
2022/04/17 09:09:51;;;;;;;;;;;;;;;15.15;22.58;99919.16;4480463;32;34033;-81
2022/04/17 09:12:18;;;;;;;;;;;;;;;15.41;22.86;99917.56;4469124;32;33358;-82
2022/04/17 09:14:46;;;;;;;;;;;;;;;15.11;22.75;99904.34;4476880;32;35029;-83
2022/04/17 09:17:15;;;;;;;;;;;;;;;14.87;23.53;99902.44;4474509;32;34282;-81
2022/04/17 09:19:43;;;;;;;;;;;;;;;15.90;22.08;99909.09;4478091;32;33839;-76
2022/04/17 09:22:12;;;;;;;;;;;;;;;15.67;23.08;99915.13;4466840;32;34999;-81
2022/04/17 09:24:39;;;;;;;;;;;;;;;15.17;23.08;99912.22;4452923;32;33829;-80
2022/04/17 09:27:07;;;;;;;;;;;;;;;15.90;22.12;99891.66;4458054;32;33782;-81
2022/04/17 09:29:36;;;;;;;;;;;;;;;15.98;22.44;99900.41;4482685;32;33711;-81
2022/04/17 09:32:06;;;;;;;;;;;;;;;14.54;23.31;99898.72;4459987;32;34863;-80
2022/04/17 09:34:55;;;;;;;;;;;;;;;15.22;22.99;99893.09;4470346;32;34213;-80
2022/04/17 09:37:23;;;;;;;;;;;;;;;16.12;22.93;99876.03;4478411;32;33600;-82
2022/04/17 09:39:52;;;;;;;;;;;;;;;15.77;21.76;99875.09;4483633;32;33540;-82
2022/04/17 09:42:29;;;;;;;;;;;;;;;15.82;22.13;99862.88;4476914;32;34964;-80
2022/04/17 09:44:57;;;;;;;;;;;;;;;14.99;22.25;99879.03;4467330;32;34379;-81
2022/04/17 09:47:26;;;;;;;;;;;;;;;15.38;23.73;99875.78;4478835;32;34025;-82
2022/04/17 09:49:59;;;;;;;;;;;;;;;14.52;23.13;99866.53;4484104;32;33445;-81
2022/04/17 09:52:31;;;;;;;;;;;;;;;14.64;24.30;99857.91;4480521;32;34361;-81
2022/04/17 09:54:59;;;;;;;;;;;;;;;15.61;22.44;99867.12;4481729;32;34612;-81
2022/04/17 09:57:40;;;;;;;;;;;;;;;15.35;22.37;99859.22;4483728;32;34228;-80
2022/04/17 10:00:18;;;;;;;;;;;;;;;15.51;22.35;99856.66;4470202;32;33254;-79
2022/04/17 10:02:46;;;;;;;;;;;;;;;15.86;21.64;99844.59;4479286;32;34216;-79
2022/04/17 10:05:14;;;;;;;;;;;;;;;15.49;22.43;99849.66;4469539;32;35283;-80
2022/04/17 10:07:42;;;;;;;;;;;;;;;16.38;22.40;99842.03;4482448;32;33768;-79
2022/04/17 10:10:14;;;;;;;;;;;;;;;16.82;21.74;99834.19;4474213;32;33270;-81
2022/04/17 10:12:42;;;;;;;;;;;;;;;16.16;20.96;99835.91;4469749;32;34880;-82
2022/04/17 10:15:11;;;;;;;;;;;;;;;16.38;21.63;99835.06;4469644;32;34792;-81
2022/04/17 10:17:39;;;;;;;;;;;;;;;15.97;21.62;99832.41;4483770;32;35185;-80
2022/04/17 10:20:08;;;;;;;;;;;;;;;16.82;21.78;99825.44;4468990;32;33022;-80
2022/04/17 10:22:37;;;;;;;;;;;;;;;15.89;21.92;99829.78;4483105;32;34081;-80
2022/04/17 10:25:05;;;;;;;;;;;;;;;15.70;23.13;99833.22;4484394;32;34001;-81
2022/04/17 10:27:36;;;;;;;;;;;;;;;15.58;22.00;99820.97;4468256;32;34276;-82
2022/04/17 10:30:04;;;;;;;;;;;;;;;15.29;22.28;99813.88;4465933;32;34012;-82
2022/04/17 10:32:50;;;;;;;;;;;;;;;16.28;21.78;99810.63;4483815;32;33895;-81
2022/04/17 10:35:43;;;;;;;;;;;;;;;16.38;21.53;99808.91;4483722;32;34018;-82
2022/04/17 10:38:13;;;;;;;;;;;;;;;16.38;22.33;99808.03;4447243;32;34168;-81
2022/04/17 10:40:48;;;;;;;;;;;;;;;17.00;22.55;99792.22;4483776;32;33835;-80
2022/04/17 10:43:15;;;;;;;;;;;;;;;17.17;20.35;99789.53;4478729;32;35044;-82
2022/04/17 10:46:01;;;;;;;;;;;;;;;16.63;20.49;99794.03;4476540;32;34162;-81
2022/04/17 10:48:29;;;;;;;;;;;;;;;17.68;20.71;99779.66;4483509;32;34328;-81
2022/04/17 10:50:56;;;;;;;;;;;;;;;17.02;20.74;99776.50;4482771;32;34181;-81
2022/04/17 10:53:26;;;;;;;;;;;;;;;16.13;21.01;99770.53;4484113;32;34199;-82
2022/04/17 10:56:03;;;;;;;;;;;;;;;16.35;21.92;99780.09;4482036;32;35341;-80
2022/04/17 10:58:50;;;;;;;;;;;;;;;16.17;20.50;99785.34;4457886;32;34062;-81
2022/04/17 11:01:37;;;;;;;;;;;;;;;17.20;19.54;99786.06;4465907;32;34122;-82
2022/04/17 11:04:18;;;;;;;;;;;;;;;16.44;20.19;99784.44;4483716;32;33856;-82
2022/04/17 11:06:45;;;;;;;;;;;;;;;17.02;19.46;99774.75;4483845;32;35332;-82
2022/04/17 11:09:14;;;;;;;;;;;;;;;16.83;19.27;99775.69;4483094;32;33995;-80
2022/04/17 11:11:43;;;;;;;;;;;;;;;17.31;18.41;99755.41;4483446;32;35041;-82
2022/04/17 11:14:13;;;;;;;;;;;;;;;16.15;19.11;99766.19;4483223;32;35071;-82
2022/04/17 11:16:50;;;;;;;;;;;;;;;17.47;18.42;99762.31;4483421;32;34169;-82
2022/04/17 11:19:22;;;;;;;;;;;;;;;17.50;17.75;99756.16;4482739;32;35046;-82
2022/04/17 11:21:50;;;;;;;;;;;;;;;17.18;18.45;99759.84;4483806;32;33108;-81
2022/04/17 11:24:19;;;;;;;;;;;;;;;17.00;19.60;99755.53;4470032;32;33601;-81
2022/04/17 11:26:52;;;;;;;;;;;;;;;17.31;21.29;99739.66;4482844;32;35309;-81
2022/04/17 11:29:35;;;;;;;;;;;;;;;18.56;17.68;99736.97;4483655;32;34228;-83
2022/04/17 11:32:02;;;;;;;;;;;;;;;17.12;19.67;99743.25;4483598;32;33214;-81
2022/04/17 11:34:40;;;;;;;;;;;;;;;17.63;20.60;99738.62;4469286;32;33748;-82
2022/04/17 11:37:07;;;;;;;;;;;;;;;17.97;18.79;99747.16;4483351;32;34542;-81
2022/04/17 11:39:35;;;;;;;;;;;;;;;18.00;19.17;99741.87;4483160;32;34132;-81
2022/04/17 11:42:03;;;;;;;;;;;;;;;17.16;20.70;99739.75;4469043;32;33551;-80
2022/04/17 11:44:31;;;;;;;;;;;;;;;17.74;19.36;99739.44;4483148;32;33749;-80
2022/04/17 11:46:59;;;;;;;;;;;;;;;18.18;18.90;99723.38;4466666;32;35263;-80
2022/04/17 11:49:26;;;;;;;;;;;;;;;18.15;19.71;99740.88;4483404;32;34000;-81
2022/04/17 11:51:53;;;;;;;;;;;;;;;17.68;19.73;99731.59;4483668;32;33205;-82
2022/04/17 11:54:30;;;;;;;;;;;;;;;17.74;18.05;99719.31;4482812;32;35032;-80
2022/04/17 11:56:57;;;;;;;;;;;;;;;18.12;18.08;99718.16;4467862;32;34299;-82
2022/04/17 11:59:24;;;;;;;;;;;;;;;17.10;21.39;99724.09;4473563;32;35188;-83
2022/04/17 12:02:08;;;;;;;;;;;;;;;18.12;19.83;99727.78;4482815;32;33504;-80
2022/04/17 12:04:36;;;;;;;;;;;;;;;18.44;18.73;99730.09;4483061;32;33860;-81
2022/04/17 12:07:03;;;;;;;;;;;;;;;18.34;17.04;99713.59;4483522;32;35272;-81
2022/04/17 12:09:30;;;;;;;;;;;;;;;17.74;18.05;99724.56;4469281;32;34235;-81
2022/04/17 12:11:58;;;;;;;;;;;;;;;17.51;17.93;99723.84;4482785;32;33166;-81
2022/04/17 12:14:29;;;;;;;;;;;;;;;16.71;19.49;99700.66;4482817;32;34165;-80
2022/04/17 12:16:56;;;;;;;;;;;;;;;17.95;18.07;99714.81;4469192;32;35274;-80
2022/04/17 12:19:26;;;;;;;;;;;;;;;18.27;17.84;99704.03;4478918;32;33893;-81
2022/04/17 12:21:53;;;;;;;;;;;;;;;18.70;16.97;99708.81;4467740;32;33460;-84
2022/04/17 12:24:27;;;;;;;;;;;;;;;19.36;16.98;99689.59;4467583;32;34742;-82
2022/04/17 12:26:55;;;;;;;;;;;;;;;17.67;17.57;99699.25;4467878;32;33738;-81
2022/04/17 12:29:23;;;;;;;;;;;;;;;18.68;17.90;99695.69;4467987;32;34559;-81
2022/04/17 12:31:50;;;;;;;;;;;;;;;17.95;19.01;99697.31;4473622;32;34179;-81
2022/04/17 12:34:19;;;;;;;;;;;;;;;17.92;18.37;99701.72;4483212;32;34955;-81
2022/04/17 12:36:46;;;;;;;;;;;;;;;18.32;18.03;99694.34;4483051;32;34957;-80
2022/04/17 12:39:13;;;;;;;;;;;;;;;17.39;18.86;99688.09;4482525;32;34069;-81
2022/04/17 12:41:48;;;;;;;;;;;;;;;18.34;18.01;99679.47;4482727;32;34013;-80
2022/04/17 12:44:15;;;;;;;;;;;;;;;17.92;18.45;99691.25;4454040;32;34946;-81
2022/04/17 12:46:42;;;;;;;;;;;;;;;18.57;18.15;99675.72;4465666;32;34004;-79
2022/04/17 12:49:15;;;;;;;;;;;;;;;17.16;18.81;99675.16;4467325;32;34194;-81
2022/04/17 12:51:52;;;;;;;;;;;;;;;16.92;19.09;99672.66;4468813;32;34478;-81
2022/04/17 12:54:20;;;;;;;;;;;;;;;17.47;19.06;99670.56;4468895;32;34914;-81
2022/04/17 12:56:47;;;;;;;;;;;;;;;16.33;19.56;99666.75;4483108;32;35391;-81
2022/04/17 12:59:20;;;;;;;;;;;;;;;16.89;18.94;99660.44;4482880;32;34357;-81
2022/04/17 13:01:48;;;;;;;;;;;;;;;16.88;19.58;99657.81;4482276;32;32933;-81
2022/04/17 13:04:19;;;;;;;;;;;;;;;16.84;18.99;99666.56;4442877;32;33533;-81
2022/04/17 13:06:47;;;;;;;;;;;;;;;17.11;19.17;99662.94;4468831;32;34489;-81
2022/04/17 13:09:23;;;;;;;;;;;;;;;17.28;17.47;99645.38;4482565;32;34947;-80